Aeroporto :
LOGIN :

Iscrizione | Disclaimer

   EN    FR    IT 

 










Sommario :    VFR   VFR Marginale   IFR   IFR Intensivo   IFR Molto Intensivo
Visibilità : 
Base nubi : 
>= 8 km
>= 3000ft
5 / 8 km
1000 / 3000 ft
1500m / 5 km
500 / 1000 ft
800 / 1500m
200 / 500 ft
< 800m
< 200 ft
Simboli :   Temporali  Nebbia  Neve Forte  Precipitazioni Forti  Vento > 20 kt
SIGMETs :   Varie  Temporali  Ghiacco  Turbolenza  Onda orograficha  Ceneri Vulcaniche






- Altitudine del aeroporto : 325 ft
- Codice IATA : BES


LFRB - Brest

ULTIMO METAR :
  • 281700Z AUTO 23016KT 9999 SCT012/// BKN024/// BKN035/// ///CB 14/13 Q1014 TEMPO 23020G35KT 4000 SHRA BKN012 BKN020CB

METARs OBSOLETI :
  • 281630Z AUTO 21019KT 3400 1400 R25/P2000 R07/1500D RA BR BKN008/// OVC015/// ///CB 14/14 Q1015 TEMPO 2000 TSRA BKN012 BKN020CB BECMG 28010KT
  • 281600Z AUTO 22017KT 9999 -RA SCT011/// BKN016/// BKN025/// ///CB 14/13 Q1015 TEMPO 23020G35KT 2000 TSRA BKN008 BKN015CB
  • 281530Z AUTO 21019KT 9999 3500 RA FEW015/// SCT020/// BKN027/// ///CB 15/13 Q1015 TEMPO 23020G35KT 2000 TSRA BKN008 BKN015CB
  • 281500Z AUTO 21017G28KT 9999 -RA SCT019/// BKN034/// BKN050/// ///TCU 15/13 Q1015 TEMPO 2000 TSRA BKN008 BKN015CB
  • 281430Z AUTO 21018G29KT 9999 -RA BKN021/// BKN027/// OVC033/// ///TCU 16/14 Q1015 TEMPO 2000 TSRA BKN008 BKN015CB

TAF TAF LFRB
Valido dal 28 a 12 ore il 29 a 18 ore UTC


281100Z 2812/2918 21015G25KT 9999 BKN030
TEMPO 2812/2822 4000 SHRA BKN012 BKN020CB
TEMPO 2815/2818 23020G35KT 2000 TSRA BKN008 BKN015CB
BECMG 2818/2821 28010KT
PROB30
TEMPO 2822/2908 30015G25KT 4000 SHRA
BECMG 2915/2918 VRB05KT
ATIS : +33 2 98 32 02 71



MetMap, La meteo Aeronautica in un colpo d'occhio ! - Copyright ORBIFLY Dicembre 2007 - Disclaimer

ORBIFLY MET'MAP TEAM :

Programmazione e sviluppo : Alexandra Zaïnal
Concezione : Baudouin d'Aumeries
Aiuto per la programmazione : Marc-Olivier Méhu
Supporto tecnico e logistico : Manuel Goepfert
Aiuto per la traduzione : Arnaldo La Scala

Contatto : metmap@orbifly.com




FONTI E CREDITI :

   NOAA